logo
Rechercher aéroport 
image banner adimage banner adimage banner ad
image banner ad

RPVM - Mactan-Cebu International Airport

Situé à Lapu-Lapu City, Philippines

ICAO - RPVM, IATA - CEB

Données fournies par Airmate  

Information générale

Coordonnées: N10°18'27" E123°58'46"
Élévation : 34 feet MSL.
Variation magnétique : -2° East
Évalué:
Voir évaluations:
[VIEW]
Voir autres Aéroports à Cebu

Données opérationnelles

Special qualification required
Heure actuelle UTC:
Heure actuelle locale:
Météo
METAR: RPVM 201200Z 05005KT 9999 FEW020 31/26 Q1009 NOSIG RMK A2980
TAF: TAF RPVM 201100Z 2012/2118 06006KT 9999 FEW020 TEMPO 2018/2024 VRB02KT
Voir NOTAMs / SUP AIP / TFR affectant cet aéroport [VIEW]
Fréquences de communication: [VIEW]

Pistes:

Identifiant RWYQFULongueur (ft)Largeur (ft)SurfaceLDA (ft)
0445°10860148CONC+ASPH10860
22225°10860148CONC+ASPH10860

Coordonnées de l'aéroport

Adresse: Lapu-Lapu City Philippines

Vue satellite de RPVM